Time;durP1;ratioP1;P1;durP2;ratioP2;P2;SDS_P1;SDS_P2;PMS_P1;PMS_P2;Temp;Humidity;BMP_temperature;BMP_pressure;BME280_temperature;BME280_humidity;BME280_pressure;Samples;Min_cycle;Max_cycle;Signal;HPM_P1;HPM_P2
2024/04/12 00:01:14;;;;;;;14.43;7.43;;;14.90;99.90;;;;;;5489873;26;19994;-40
2024/04/12 00:03:41;;;;;;;15.18;8.13;;;14.90;99.90;;;;;;5490245;26;20067;-38
2024/04/12 00:06:30;;;;;;;15.85;8.40;;;14.90;99.90;;;;;;5489916;26;20067;-39
2024/04/12 00:08:57;;;;;;;14.80;8.32;;;14.80;99.90;;;;;;5485710;26;19998;-38
2024/04/12 00:11:23;;;;;;;11.63;7.90;;;14.80;99.90;;;;;;5453381;26;20075;-38
2024/04/12 00:13:52;;;;;;;10.90;7.07;;;14.80;99.90;;;;;;5453802;26;20047;-39
2024/04/12 00:16:25;;;;;;;12.98;6.93;;;14.80;99.90;;;;;;5481988;26;20442;-39
2024/04/12 00:19:06;;;;;;;12.90;7.30;;;14.80;99.90;;;;;;5489557;26;19998;-40
2024/04/12 00:21:32;;;;;;;12.30;6.25;;;14.80;99.90;;;;;;5453128;26;19994;-39
2024/04/12 00:23:59;;;;;;;12.60;7.22;;;14.70;99.90;;;;;;5475649;26;19998;-38
2024/04/12 00:26:29;;;;;;;10.55;6.80;;;14.60;99.90;;;;;;5487921;26;20451;-54
2024/04/12 00:28:58;;;;;;;8.70;6.10;;;14.60;99.90;;;;;;5489576;26;20484;-54
2024/04/12 00:31:26;;;;;;;10.88;6.75;;;14.60;99.90;;;;;;5489456;26;19994;-53
2024/04/12 00:33:55;;;;;;;7.25;5.70;;;14.60;99.90;;;;;;5489242;26;20454;-55
2024/04/12 00:36:24;;;;;;;9.13;5.97;;;14.70;99.90;;;;;;5489319;26;19994;-54
2024/04/12 00:38:55;;;;;;;10.15;5.93;;;14.70;99.90;;;;;;5489246;26;20002;-53
2024/04/12 00:41:24;;;;;;;7.43;5.07;;;14.70;99.90;;;;;;5489387;26;19995;-49
2024/04/12 00:43:52;;;;;;;8.55;5.70;;;14.70;99.90;;;;;;5489335;26;20006;-51
2024/04/12 00:46:25;;;;;;;10.23;5.85;;;14.70;99.90;;;;;;5489192;26;19994;-55
2024/04/12 00:48:57;;;;;;;8.85;5.47;;;14.60;99.90;;;;;;5489077;26;20005;-50
2024/04/12 00:51:27;;;;;;;10.20;6.30;;;14.60;99.90;;;;;;5489125;26;19999;-53
2024/04/12 00:53:59;;;;;;;11.77;6.53;;;14.60;99.90;;;;;;5489141;26;20008;-54
2024/04/12 00:56:29;;;;;;;14.05;6.40;;;14.50;99.90;;;;;;5489223;26;20066;-54
2024/04/12 00:58:59;;;;;;;8.90;6.03;;;14.60;99.90;;;;;;5488974;26;20004;-49
2024/04/12 01:01:26;;;;;;;8.13;5.28;;;14.50;99.90;;;;;;5488873;26;19995;-56
2024/04/12 01:03:55;;;;;;;8.23;5.65;;;14.60;99.90;;;;;;5488292;26;19994;-51
2024/04/12 01:06:29;;;;;;;6.07;5.07;;;14.50;99.90;;;;;;5486717;26;20002;-53
2024/04/12 01:08:58;;;;;;;5.68;3.95;;;14.50;99.90;;;;;;5484901;26;20008;-54
2024/04/12 01:11:27;;;;;;;4.68;3.83;;;14.50;99.90;;;;;;5452584;26;20006;-54
2024/04/12 01:13:53;;;;;;;5.90;3.80;;;14.50;99.90;;;;;;5452359;26;20013;-54
2024/04/12 01:16:21;;;;;;;4.35;3.38;;;14.50;99.90;;;;;;5450568;26;20343;-51
2024/04/12 01:18:49;;;;;;;5.95;3.30;;;14.50;99.90;;;;;;5472664;26;20070;-52
2024/04/12 01:21:15;;;;;;;4.53;2.75;;;14.50;99.90;;;;;;5488791;26;20047;-54
2024/04/12 01:23:48;;;;;;;5.38;3.28;;;14.50;99.90;;;;;;5488641;26;20003;-54
2024/04/12 01:26:17;;;;;;;4.93;3.85;;;14.50;99.90;;;;;;5488595;26;20009;-52
2024/04/12 01:28:43;;;;;;;5.00;3.65;;;14.40;99.90;;;;;;5486752;26;20005;-52
2024/04/12 01:31:15;;;;;;;7.10;4.80;;;14.40;99.90;;;;;;5488564;26;20022;-53
2024/04/12 01:33:48;;;;;;;9.45;4.95;;;14.40;99.90;;;;;;5488808;26;20311;-52
2024/04/12 01:36:21;;;;;;;6.32;4.45;;;14.40;99.90;;;;;;5488629;26;20059;-40
2024/04/12 01:38:57;;;;;;;6.90;4.30;;;14.40;99.90;;;;;;5488331;26;19998;-54
2024/04/12 01:41:31;;;;;;;7.35;4.15;;;14.50;99.90;;;;;;5488117;26;20034;-53
2024/04/12 01:44:04;;;;;;;6.28;4.60;;;14.50;99.90;;;;;;5488351;26;19994;-53
2024/04/12 01:46:31;;;;;;;8.55;4.90;;;14.50;99.90;;;;;;5488188;26;20034;-53
2024/04/12 01:49:00;;;;;;;9.30;5.25;;;14.50;99.90;;;;;;5488126;26;20125;-49
2024/04/12 01:51:26;;;;;;;7.22;4.88;;;14.40;99.90;;;;;;5486496;26;19994;-40
2024/04/12 01:53:54;;;;;;;5.63;4.50;;;14.40;99.90;;;;;;5485187;26;20447;-68
2024/04/12 01:56:22;;;;;;;8.05;4.82;;;14.40;99.90;;;;;;5488101;26;20006;-39
2024/04/12 01:58:48;;;;;;;;;;;14.40;99.90;;;;;;5487513;26;19994;-39
2024/04/12 02:01:14;;;;;;;8.45;5.55;;;14.40;99.90;;;;;;5487928;26;19931;-39
2024/04/12 02:03:40;;;;;;;7.03;5.03;;;14.30;99.90;;;;;;5488006;26;20547;-40
2024/04/12 02:06:27;;;;;;;8.35;4.78;;;14.30;99.90;;;;;;5488081;26;19998;-61
2024/04/12 02:08:52;;;;;;;11.35;5.32;;;14.30;99.90;;;;;;5487539;26;20010;-38
2024/04/12 02:11:23;;;;;;;12.15;5.38;;;14.30;99.90;;;;;;5487864;26;20078;-43
2024/04/12 02:13:52;;;;;;;7.10;4.55;;;14.30;99.90;;;;;;5487647;26;20498;-64
2024/04/12 02:16:20;;;;;;;8.93;5.22;;;14.40;99.90;;;;;;5487776;26;20407;-39
2024/04/12 02:18:47;;;;;;;10.50;5.38;;;14.40;99.90;;;;;;5491342;26;20507;-44
2024/04/12 02:21:13;;;;;;;10.07;5.75;;;14.40;99.90;;;;;;5491538;26;20109;-40
2024/04/12 02:23:38;;;;;;;7.88;5.03;;;14.40;99.90;;;;;;5491467;26;20006;-38
2024/04/12 02:26:05;;;;;;;6.60;4.88;;;14.30;99.90;;;;;;5491669;26;20002;-37
2024/04/12 02:28:36;;;;;;;7.40;4.22;;;14.40;99.90;;;;;;5489647;26;20034;-38
2024/04/12 02:31:08;;;;;;;7.35;4.63;;;14.40;99.90;;;;;;5483991;26;20435;-39
2024/04/12 02:33:34;;;;;;;6.88;4.15;;;14.40;99.90;;;;;;5484543;26;20017;-40
2024/04/12 02:36:14;;;;;;;6.68;4.57;;;14.30;99.90;;;;;;5482727;26;19994;-38
2024/04/12 02:38:42;;;;;;;5.85;3.80;;;14.30;99.90;;;;;;5454898;26;20072;-50
2024/04/12 02:41:14;;;;;;;5.30;3.63;;;14.30;99.90;;;;;;5474529;26;19994;-51
2024/04/12 02:44:04;;;;;;;7.07;3.65;;;14.30;99.90;;;;;;5491185;26;20013;-51
2024/04/12 02:46:29;;;;;;;4.05;2.95;;;14.40;99.90;;;;;;5489326;26;20008;-53
2024/04/12 02:48:55;;;;;;;7.68;3.78;;;14.40;99.90;;;;;;5490991;26;20002;-53
2024/04/12 02:51:23;;;;;;;6.28;2.88;;;14.30;99.90;;;;;;5490861;26;20018;-52
2024/04/12 02:53:50;;;;;;;3.45;2.72;;;14.40;99.90;;;;;;5490764;26;19994;-52
2024/04/12 02:56:18;;;;;;;5.10;2.85;;;14.40;99.90;;;;;;5490995;26;19998;-50
2024/04/12 02:58:44;;;;;;;;;;;14.40;99.90;;;;;;5491343;26;19998;-53
2024/04/12 03:01:14;;;;;;;5.68;3.35;;;14.30;99.90;;;;;;5490754;26;20334;-54
2024/04/12 03:03:45;;;;;;;5.10;2.95;;;14.40;99.90;;;;;;5488941;26;20502;-50
2024/04/12 03:06:22;;;;;;;3.47;2.63;;;14.40;99.90;;;;;;5490597;26;20032;-54
2024/04/12 03:08:48;;;;;;;4.23;3.17;;;14.30;99.90;;;;;;5488244;26;20013;-49
2024/04/12 03:11:21;;;;;;;4.38;3.35;;;14.30;99.90;;;;;;5454294;26;20744;-53
2024/04/12 03:14:11;;;;;;;4.18;2.92;;;14.30;99.90;;;;;;5454398;26;20009;-54
2024/04/12 03:16:42;;;;;;;3.50;3.05;;;14.30;99.90;;;;;;5452526;26;19999;-53
2024/04/12 03:19:10;;;;;;;4.47;3.28;;;14.30;99.90;;;;;;5454236;26;19995;-53
2024/04/12 03:21:36;;;;;;;5.38;2.80;;;14.40;99.90;;;;;;5457021;26;19999;-51
2024/04/12 03:24:04;;;;;;;5.20;3.50;;;14.30;99.90;;;;;;5488746;26;19998;-53
2024/04/12 03:26:30;;;;;;;;;;;14.30;99.90;;;;;;5489241;26;20013;-51
2024/04/12 03:29:05;;;;;;;6.18;3.78;;;14.30;99.90;;;;;;5489385;26;19923;-52
2024/04/12 03:31:40;;;;;;;4.93;3.42;;;14.30;99.90;;;;;;5490330;26;20063;-54
2024/04/12 03:34:06;;;;;;;4.32;2.90;;;14.30;99.90;;;;;;5488599;26;19994;-54
2024/04/12 03:41:56;;;;;;;4.75;3.65;;;14.30;99.90;;;;;;5490399;26;20387;-54
2024/04/12 03:44:25;;;;;;;6.05;3.55;;;14.30;99.90;;;;;;5488589;26;20435;-54
2024/04/12 03:46:52;;;;;;;4.57;3.50;;;14.20;99.90;;;;;;5490151;26;20125;-54
2024/04/12 03:49:22;;;;;;;11.10;3.60;;;14.20;99.90;;;;;;5490053;26;20030;-53
2024/04/12 03:51:54;;;;;;;5.60;3.78;;;14.10;99.90;;;;;;5490189;26;19998;-58
2024/04/12 03:54:21;;;;;;;6.75;3.92;;;14.10;99.90;;;;;;5490271;26;20001;-52
2024/04/12 03:56:52;;;;;;;5.32;3.00;;;14.20;99.90;;;;;;5490155;26;20010;-54
2024/04/12 03:59:20;;;;;;;5.63;3.65;;;14.20;99.90;;;;;;5489868;26;19998;-53
2024/04/12 04:01:46;;;;;;;4.18;3.25;;;14.20;99.90;;;;;;5490145;26;20509;-54
2024/04/12 04:04:18;;;;;;;2.80;2.60;;;14.20;99.90;;;;;;5488101;26;19998;-52
2024/04/12 04:06:54;;;;;;;4.78;3.55;;;14.30;99.90;;;;;;5489751;26;20339;-53
2024/04/12 04:09:20;;;;;;;5.55;3.45;;;14.30;99.90;;;;;;5479353;26;19999;-53
2024/04/12 04:11:47;;;;;;;6.53;3.78;;;14.30;99.90;;;;;;5453426;26;19995;-54
2024/04/12 04:14:13;;;;;;;5.82;3.30;;;14.30;99.90;;;;;;5480709;26;20446;-52
2024/04/12 04:16:41;;;;;;;6.07;3.88;;;14.30;99.90;;;;;;5489769;26;20005;-54
2024/04/12 04:19:12;;;;;;;9.70;3.70;;;14.30;99.90;;;;;;5489649;26;19998;-53
2024/04/12 04:21:39;;;;;;;14.57;3.65;;;14.30;99.90;;;;;;5473442;26;19994;-53
2024/04/12 04:24:11;;;;;;;4.55;3.15;;;14.30;99.90;;;;;;5472373;26;20447;-56
2024/04/12 04:26:40;;;;;;;4.57;3.20;;;14.30;99.90;;;;;;5453161;26;19999;-54
2024/04/12 04:29:09;;;;;;;5.28;3.78;;;14.30;99.90;;;;;;5458693;26;20150;-53
2024/04/12 04:31:49;;;;;;;5.82;3.53;;;14.30;99.90;;;;;;5471874;26;20005;-54
2024/04/12 04:34:14;;;;;;;5.28;4.07;;;14.20;99.90;;;;;;5481800;26;19995;-57
2024/04/12 04:36:40;;;;;;;7.30;3.80;;;14.20;99.90;;;;;;5485813;26;20365;-52
2024/04/12 04:39:15;;;;;;;5.72;4.30;;;14.20;99.90;;;;;;5487381;26;19998;-54
2024/04/12 04:41:43;;;;;;;8.10;4.32;;;14.20;99.90;;;;;;5487626;26;19995;-53
2024/04/12 04:44:09;;;;;;;7.95;3.90;;;14.10;99.90;;;;;;5480403;26;20447;-54
2024/04/12 04:46:34;;;;;;;10.63;4.70;;;14.20;99.90;;;;;;5452799;26;20009;-52
2024/04/12 04:49:00;;;;;;;7.82;4.80;;;14.20;99.90;;;;;;5453486;26;20399;-48
2024/04/12 04:51:26;;;;;;;7.93;4.82;;;14.10;99.90;;;;;;5452988;26;19999;-68
2024/04/12 04:53:54;;;;;;;5.70;3.80;;;14.00;99.90;;;;;;5452775;26;20071;-53
2024/04/12 04:56:30;;;;;;;6.55;5.18;;;14.10;99.90;;;;;;5452656;26;20063;-53
2024/04/12 04:58:56;;;;;;;8.98;4.78;;;14.10;99.90;;;;;;5454522;26;20456;-53
2024/04/12 05:01:25;;;;;;;9.90;4.75;;;14.10;99.90;;;;;;5488954;26;19998;-55
2024/04/12 05:03:52;;;;;;;8.57;4.95;;;14.10;99.90;;;;;;5488961;26;20002;-52
2024/04/12 05:06:24;;;;;;;9.25;5.00;;;14.20;99.90;;;;;;5486215;26;20017;-53
2024/04/12 05:08:55;;;;;;;7.28;5.03;;;14.10;99.90;;;;;;5487734;26;20082;-51
2024/04/12 05:11:21;;;;;;;10.88;4.72;;;14.10;99.90;;;;;;5487204;26;20417;-49
2024/04/12 05:13:55;;;;;;;8.05;4.63;;;14.20;99.90;;;;;;5487010;26;20002;-52
2024/04/12 05:16:22;;;;;;;7.63;4.95;;;14.20;99.90;;;;;;5488735;26;19994;-51
2024/04/12 05:18:48;;;;;;;9.07;4.95;;;14.20;99.90;;;;;;5483550;26;20006;-54
2024/04/12 05:21:15;;;;;;;7.38;4.53;;;14.30;99.90;;;;;;5452303;26;20466;-54
2024/04/12 05:23:40;;;;;;;9.45;5.88;;;14.30;99.90;;;;;;5452280;26;20435;-54
2024/04/12 05:26:06;;;;;;;10.23;5.80;;;14.30;99.90;;;;;;5452202;26;20002;-39
2024/04/12 05:28:33;;;;;;;8.15;5.32;;;14.30;99.90;;;;;;5452825;26;20448;-39
2024/04/12 05:30:59;;;;;;;8.43;5.10;;;14.20;99.90;;;;;;5452166;26;20483;-39
2024/04/12 05:33:27;;;;;;;11.82;4.97;;;14.20;99.90;;;;;;5450355;26;19999;-40
2024/04/12 05:35:52;;;;;;;11.13;5.45;;;14.20;99.90;;;;;;5481342;26;20005;-73
2024/04/12 05:38:20;;;;;;;9.45;5.35;;;14.20;99.90;;;;;;5488255;26;19998;-39
2024/04/12 05:40:52;;;;;;;10.75;5.50;;;14.20;99.90;;;;;;5452117;26;20443;-40
2024/04/12 05:43:18;;;;;;;8.55;5.32;;;14.20;99.90;;;;;;5452174;26;20440;-40
2024/04/12 05:45:49;;;;;;;9.85;5.82;;;14.30;99.90;;;;;;5452666;26;20009;-40
2024/04/12 05:48:21;;;;;;;10.52;5.25;;;14.30;99.90;;;;;;5451987;26;19999;-70
2024/04/12 05:50:55;;;;;;;7.03;5.30;;;14.30;99.90;;;;;;5456398;26;20071;-41
2024/04/12 05:53:26;;;;;;;10.48;5.07;;;14.30;99.90;;;;;;5454575;26;20467;-42
2024/04/12 05:56:20;;;;;;;9.95;6.03;;;14.40;99.90;;;;;;5484943;26;20369;-40
2024/04/12 05:58:37;;;;;;;13.68;6.18;;;14.40;99.90;;;;;;5491535;26;20026;-64
2024/04/12 06:01:07;;;;;;;9.90;6.40;;;14.40;99.90;;;;;;5490511;26;20008;-41
2024/04/12 06:03:42;;;;;;;9.55;5.32;;;14.40;99.90;;;;;;5491489;26;20450;-41
2024/04/12 06:06:12;;;;;;;10.52;5.78;;;14.40;99.90;;;;;;5469020;26;20025;-39
2024/04/12 06:08:38;;;;;;;12.55;6.10;;;14.50;99.90;;;;;;5455837;26;20035;-39
2024/04/12 06:11:08;;;;;;;10.77;5.50;;;14.50;99.90;;;;;;5455157;26;20381;-40
2024/04/12 06:13:35;;;;;;;11.80;5.38;;;14.50;99.90;;;;;;5454944;26;20010;-46
2024/04/12 06:16:02;;;;;;;14.50;5.77;;;14.50;99.90;;;;;;5454057;26;20468;-40
2024/04/12 06:18:28;;;;;;;18.10;6.57;;;14.60;99.90;;;;;;5458494;26;20011;-39
2024/04/12 06:20:55;;;;;;;10.73;6.03;;;14.80;99.90;;;;;;5491067;26;20051;-39
2024/04/12 06:23:21;;;;;;;11.10;5.60;;;14.80;99.90;;;;;;5491459;26;20362;-39
2024/04/12 06:25:50;;;;;;;12.90;5.28;;;14.90;99.90;;;;;;5464124;26;20352;-40
2024/04/12 06:28:19;;;;;;;9.75;5.53;;;15.00;99.90;;;;;;5456528;26;20054;-41
2024/04/12 06:30:52;;;;;;;10.60;6.32;;;15.10;99.90;;;;;;5479998;26;20331;-42
2024/04/12 06:33:22;;;;;;;13.85;5.53;;;15.10;99.90;;;;;;5479820;26;20009;-38
2024/04/12 06:36:11;;;;;;;11.07;5.68;;;15.20;99.90;;;;;;5491031;26;20082;-42
2024/04/12 06:38:39;;;;;;;8.65;5.68;;;15.20;99.90;;;;;;5491025;26;19999;-39
2024/04/12 06:41:10;;;;;;;12.35;5.20;;;15.20;99.90;;;;;;5461801;26;20031;-40
2024/04/12 06:43:42;;;;;;;7.78;4.75;;;15.20;99.90;;;;;;5454488;26;20070;-39
2024/04/12 06:46:18;;;;;;;11.50;5.60;;;15.20;99.90;;;;;;5454713;26;20443;-40
2024/04/12 06:48:44;;;;;;;12.68;5.65;;;15.20;99.90;;;;;;5474091;26;20454;-40
2024/04/12 06:51:13;;;;;;;10.90;5.68;;;15.20;99.90;;;;;;5491464;26;19998;-39
2024/04/12 06:53:44;;;;;;;11.52;4.70;;;15.20;99.90;;;;;;5489544;26;20025;-39
2024/04/12 06:56:15;;;;;;;12.52;5.05;;;15.30;99.90;;;;;;5483737;26;20392;-40
2024/04/12 06:58:48;;;;;;;15.82;5.38;;;15.30;99.90;;;;;;5490714;26;19994;-40
2024/04/12 07:01:25;;;;;;;12.25;5.38;;;15.30;99.90;;;;;;5490670;26;20593;-41
2024/04/12 07:03:52;;;;;;;6.85;4.88;;;15.30;99.90;;;;;;5486904;26;19994;-39
2024/04/12 07:06:18;;;;;;;11.68;5.30;;;15.30;99.90;;;;;;5490669;26;19998;-43
2024/04/12 07:08:49;;;;;;;14.13;4.97;;;15.30;99.90;;;;;;5485980;26;20377;-41
2024/04/12 07:11:24;;;;;;;14.27;6.25;;;15.30;99.90;;;;;;5470950;26;19990;-40
2024/04/12 07:13:50;;;;;;;7.53;4.88;;;15.30;99.90;;;;;;5490671;26;20510;-40
2024/04/12 07:16:20;;;;;;;8.27;5.45;;;15.30;99.90;;;;;;5459354;26;20363;-39
2024/04/12 07:18:46;;;;;;;16.63;5.22;;;15.40;99.90;;;;;;5454253;26;20545;-44
2024/04/12 07:21:15;;;;;;;6.72;4.40;;;15.40;99.90;;;;;;5481617;26;20008;-41
2024/04/12 07:23:48;;;;;;;10.48;4.90;;;15.50;99.90;;;;;;5490742;26;20005;-41
2024/04/12 07:26:24;;;;;;;14.80;5.18;;;15.50;99.90;;;;;;5490687;26;19994;-41
2024/04/12 07:28:58;;;;;;;9.75;4.43;;;15.50;99.90;;;;;;5454606;26;19995;-39
2024/04/12 07:31:30;;;;;;;9.63;4.57;;;15.60;99.90;;;;;;5453981;26;19999;-40
2024/04/12 07:33:59;;;;;;;10.18;4.63;;;15.60;99.90;;;;;;5462428;26;20009;-40
2024/04/12 07:36:31;;;;;;;10.25;4.95;;;15.70;99.90;;;;;;5490089;26;20013;-38
2024/04/12 07:39:01;;;;;;;7.97;4.60;;;15.80;99.90;;;;;;5453915;26;20450;-39
2024/04/12 07:41:48;;;;;;;69.28;13.68;;;15.80;99.90;;;;;;5454205;26;20002;-39
2024/04/12 07:44:14;;;;;;;16.45;5.38;;;16.00;99.90;;;;;;5463893;26;19999;-42
2024/04/12 07:46:49;;;;;;;15.00;6.10;;;16.20;99.90;;;;;;5490229;26;20012;-39
2024/04/12 07:49:18;;;;;;;14.88;4.68;;;16.40;99.90;;;;;;5488432;26;20628;-40
2024/04/12 07:51:45;;;;;;;8.45;4.47;;;16.60;99.90;;;;;;5490571;26;20451;-40
2024/04/12 07:54:12;;;;;;;22.95;6.88;;;16.70;99.90;;;;;;5489593;26;19998;-38
2024/04/12 07:57:07;;;;;;;10.40;4.82;;;16.70;99.90;;;;;;5489890;26;20438;-40
2024/04/12 07:59:37;;;;;;;9.05;4.25;;;16.70;99.90;;;;;;5489776;26;20530;-41
2024/04/12 08:02:05;;;;;;;10.10;4.90;;;16.70;99.90;;;;;;5489935;26;19998;-39
2024/04/12 08:04:37;;;;;;;8.70;4.75;;;16.70;99.90;;;;;;5489774;26;20446;-43
2024/04/12 08:07:13;;;;;;;8.82;4.28;;;16.80;99.90;;;;;;5489942;26;20538;-44
2024/04/12 08:09:46;;;;;;;5.63;4.13;;;16.90;99.90;;;;;;5489668;26;19998;-39
2024/04/12 08:12:17;;;;;;;12.38;3.90;;;17.00;99.90;;;;;;5489208;26;20442;-41
2024/04/12 08:14:54;;;;;;;9.35;4.72;;;17.10;99.90;;;;;;5487683;26;19994;-40
2024/04/12 08:17:24;;;;;;;11.07;4.20;;;17.20;99.90;;;;;;5489986;26;19995;-39
2024/04/12 08:19:57;;;;;;;10.40;4.50;;;17.10;99.90;;;;;;5489491;26;20046;-40
2024/04/12 08:22:26;;;;;;;7.95;4.10;;;17.10;99.90;;;;;;5489556;26;20523;-41
2024/04/12 08:24:53;;;;;;;8.60;3.63;;;17.20;99.90;;;;;;5487761;26;19998;-41
2024/04/12 08:27:24;;;;;;;13.45;4.45;;;17.30;99.90;;;;;;5489435;26;19994;-42
2024/04/12 08:29:52;;;;;;;9.88;4.15;;;17.50;99.90;;;;;;5489368;26;19994;-39
2024/04/12 08:32:27;;;;;;;10.70;4.68;;;17.60;99.90;;;;;;5489578;26;20514;-40
2024/04/12 08:34:55;;;;;;;14.60;4.65;;;17.60;99.90;;;;;;5489468;26;20006;-41
2024/04/12 08:37:30;;;;;;;5.60;3.47;;;17.60;99.90;;;;;;5487619;26;19995;-40
2024/04/12 08:39:57;;;;;;;7.28;3.50;;;17.70;99.90;;;;;;5489523;26;20085;-51
2024/04/12 08:42:29;;;;;;;8.75;3.50;;;17.70;99.90;;;;;;5489369;26;19994;-56
2024/04/12 08:44:59;;;;;;;8.75;3.60;;;17.70;99.90;;;;;;5489589;26;20006;-55
2024/04/12 08:50:06;;;;;;;9.18;2.92;;;17.80;99.90;;;;;;5489163;26;20485;-53
2024/04/12 08:52:47;;;;;;;9.15;3.47;;;17.90;99.90;;;;;;5489282;26;19994;-55
2024/04/12 08:55:20;;;;;;;9.00;4.85;;;18.10;99.90;;;;;;5458620;26;20430;-55
2024/04/12 08:57:47;;;;;;;8.27;3.60;;;18.10;99.90;;;;;;5455426;26;20435;-52
2024/04/12 09:00:18;;;;;;;5.75;3.47;;;18.20;99.90;;;;;;5488904;26;20010;-54
2024/04/12 09:03:10;;;;;;;6.43;3.13;;;18.30;99.90;;;;;;5486635;26;20451;-52
2024/04/12 09:05:38;;;;;;;9.48;3.90;;;18.40;99.90;;;;;;5462804;26;19995;-54
2024/04/12 09:08:05;;;;;;;;;;;18.50;99.90;;;;;;5452875;26;20011;-56
2024/04/12 09:10:35;;;;;;;6.72;3.05;;;18.50;99.90;;;;;;5476601;26;19945;-52
2024/04/12 09:13:02;;;;;;;5.03;2.75;;;18.50;99.90;;;;;;5488623;26;20072;-54
2024/04/12 09:15:32;;;;;;;3.95;2.65;;;18.60;99.90;;;;;;5476711;26;20413;-56
2024/04/12 09:18:19;;;;;;;9.38;2.70;;;18.70;99.90;;;;;;5452180;26;20323;-52
2024/04/12 09:20:52;;;;;;;3.78;2.38;;;18.80;99.90;;;;;;5487464;26;20342;-54
2024/04/12 09:23:19;;;;;;;5.60;2.42;;;18.90;99.90;;;;;;5488635;26;20342;-53
2024/04/12 09:25:54;;;;;;;6.72;2.40;;;19.00;99.90;;;;;;5488557;26;20017;-54
2024/04/12 09:28:30;;;;;;;4.43;2.58;;;19.20;99.90;;;;;;5487283;26;20032;-52
2024/04/12 09:33:50;;;;;;;7.18;2.55;;;19.50;99.90;;;;;;5488620;26;20009;-52
2024/04/12 09:36:52;;;;;;;6.97;2.80;;;19.70;99.90;;;;;;5488383;26;20009;-56
2024/04/12 09:39:20;;;;;;;3.97;2.00;;;19.60;99.90;;;;;;5488288;26;20071;-52
2024/04/12 09:42:03;;;;;;;5.25;2.17;;;19.50;99.90;;;;;;5488175;26;20103;-55
2024/04/12 09:44:41;;;;;;;4.13;2.55;;;19.50;99.90;;;;;;5488215;26;20025;-56
2024/04/12 10:37:28;;;;;;;1.23;1.00;;;21.40;99.90;;;;;;5487236;26;20008;-52
2024/04/12 10:39:55;;;;;;;1.13;0.68;;;21.60;99.90;;;;;;5491211;26;20001;-52
2024/04/12 10:42:30;;;;;;;2.40;1.20;;;21.50;99.90;;;;;;5490720;26;19995;-53
2024/04/12 10:44:59;;;;;;;2.03;1.20;;;21.40;99.90;;;;;;5491085;26;19998;-53
2024/04/12 10:47:28;;;;;;;2.97;0.88;;;21.20;99.90;;;;;;5491235;26;20010;-52
2024/04/12 10:49:57;;;;;;;1.98;0.90;;;21.30;99.90;;;;;;5490869;26;19997;-51
2024/04/12 10:52:30;;;;;;;4.78;0.85;;;21.20;99.90;;;;;;5490857;26;20408;-50
2024/04/12 10:55:01;;;;;;;2.55;1.02;;;20.80;99.90;;;;;;5491169;26;19994;-53
2024/04/12 10:57:29;;;;;;;3.55;1.10;;;20.80;99.90;;;;;;5490825;26;19994;-54
2024/04/12 11:00:01;;;;;;;3.13;1.50;;;21.00;99.90;;;;;;5491056;26;20454;-41
2024/04/12 11:02:27;;;;;;;3.08;0.93;;;20.90;99.90;;;;;;5488416;26;20458;-71
2024/04/12 11:05:05;;;;;;;2.50;1.15;;;20.70;99.90;;;;;;5487913;26;19995;-40
2024/04/12 11:07:31;;;;;;;2.58;0.50;;;20.60;99.90;;;;;;5454569;26;20122;-46
2024/04/12 11:09:57;;;;;;;0.70;0.50;;;20.50;99.90;;;;;;5454687;26;20079;-47
2024/04/12 11:12:40;;;;;;;3.85;1.05;;;20.60;99.90;;;;;;5454190;26;20003;-39
2024/04/12 11:31:07;;;;;;;5.53;1.40;;;20.60;99.90;;;;;;5454287;26;20483;-41
2024/04/12 11:31:57;;;;;;;3.30;1.05;;;20.40;99.90;;;;;;5490381;26;20013;-40
2024/04/12 11:34:24;;;;;;;3.22;1.27;;;20.50;99.90;;;;;;5490332;26;19994;-40
2024/04/12 11:36:53;;;;;;;3.07;0.60;;;20.30;99.90;;;;;;5488210;26;19995;-40
2024/04/12 11:39:25;;;;;;;6.70;1.27;;;20.20;99.90;;;;;;5489588;26;20215;-43
2024/04/12 11:41:52;;;;;;;4.68;1.33;;;20.20;99.90;;;;;;5490252;26;20345;-39
2024/04/12 11:44:18;;;;;;;2.00;0.90;;;20.50;99.90;;;;;;5490219;26;20013;-41
2024/04/12 11:46:48;;;;;;;1.60;0.82;;;20.80;99.90;;;;;;5490264;26;20338;-45
2024/04/12 11:49:24;;;;;;;2.83;0.77;;;21.00;99.90;;;;;;5489270;26;20075;-38
2024/04/12 11:52:02;;;;;;;5.17;0.87;;;21.30;99.90;;;;;;5489705;26;20016;-42
2024/04/12 11:54:29;;;;;;;1.15;0.65;;;21.40;99.90;;;;;;5489952;26;20597;-41
2024/04/12 11:57:05;;;;;;;6.68;1.08;;;21.40;99.90;;;;;;5490074;26;20075;-39
2024/04/12 11:59:31;;;;;;;2.08;1.38;;;21.50;99.90;;;;;;5489653;26;20354;-40
2024/04/12 12:01:59;;;;;;;4.25;0.98;;;21.30;99.90;;;;;;5489962;26;20066;-47
2024/04/12 12:04:32;;;;;;;2.08;0.95;;;21.40;99.90;;;;;;5489554;26;20439;-45
2024/04/12 12:06:59;;;;;;;1.63;0.80;;;21.60;99.90;;;;;;5455573;26;20011;-40
2024/04/12 12:09:31;;;;;;;2.03;0.65;;;21.80;99.90;;;;;;5468946;26;20438;-53
2024/04/12 12:12:00;;;;;;;3.22;0.70;;;21.90;99.90;;;;;;5489722;26;20462;-50
2024/04/12 12:14:26;;;;;;;1.80;0.45;;;22.10;99.90;;;;;;5489820;26;20335;-52
2024/04/12 12:16:53;;;;;;;2.38;1.25;;;22.00;99.90;;;;;;5489633;26;20446;-53
2024/04/12 12:19:25;;;;;;;3.07;0.87;;;21.90;99.90;;;;;;5486778;26;20033;-57
2024/04/12 12:21:51;;;;;;;2.22;0.50;;;21.80;99.90;;;;;;5489683;26;20459;-52
2024/04/12 12:24:17;;;;;;;6.30;0.77;;;21.60;99.90;;;;;;5489612;26;20465;-56
2024/04/12 12:26:44;;;;;;;0.90;0.50;;;21.70;99.90;;;;;;5488839;26;19998;-55
2024/04/12 12:29:10;;;;;;;;;;;21.70;99.90;;;;;;5490059;26;20447;-54
2024/04/12 12:31:36;;;;;;;8.50;0.98;;;21.80;99.90;;;;;;5489482;26;19924;-56
2024/04/12 12:34:04;;;;;;;1.23;0.70;;;21.80;99.90;;;;;;5489574;26;20067;-54
2024/04/12 12:36:30;;;;;;;2.08;0.75;;;21.80;99.90;;;;;;5489338;26;20327;-55
2024/04/12 12:38:58;;;;;;;5.60;0.70;;;21.80;99.90;;;;;;5489295;26;20022;-54
2024/04/12 12:41:24;;;;;;;2.35;0.70;;;21.80;99.90;;;;;;5489337;26;20435;-55
2024/04/12 12:43:52;;;;;;;0.65;0.32;;;21.90;99.90;;;;;;5489093;26;19994;-55
2024/04/12 12:46:20;;;;;;;4.07;0.55;;;21.90;99.90;;;;;;5489208;26;19994;-53
2024/04/12 12:48:48;;;;;;;0.57;0.57;;;21.90;99.90;;;;;;5489152;26;19990;-54
2024/04/12 12:51:15;;;;;;;2.00;0.57;;;21.90;99.90;;;;;;5489197;26;20012;-55
2024/04/12 12:53:43;;;;;;;2.45;0.50;;;21.80;99.90;;;;;;5488891;26;20443;-54
2024/04/12 12:56:09;;;;;;;2.78;0.75;;;21.60;99.90;;;;;;5488979;26;20066;-54
2024/04/12 12:58:37;;;;;;;3.15;0.47;;;21.60;99.90;;;;;;5489138;26;20002;-54
2024/04/12 13:01:07;;;;;;;0.93;0.60;;;21.50;99.90;;;;;;5488053;26;20078;-54
2024/04/12 13:03:35;;;;;;;1.50;0.63;;;21.50;99.90;;;;;;5486498;26;20337;-53
2024/04/12 13:06:07;;;;;;;1.67;0.60;;;21.60;99.90;;;;;;5468835;26;20027;-54
2024/04/12 13:08:37;;;;;;;5.15;0.45;;;21.50;99.90;;;;;;5468173;26;20009;-53
2024/04/12 13:11:08;;;;;;;0.93;0.50;;;21.50;99.90;;;;;;5478169;26;20427;-51
2024/04/12 13:13:39;;;;;;;4.47;0.90;;;21.40;99.90;;;;;;5477737;26;20027;-53
2024/04/12 13:16:10;;;;;;;2.97;0.73;;;21.30;99.90;;;;;;5452265;26;20051;-53
2024/04/12 13:18:43;;;;;;;1.27;0.50;;;21.30;99.90;;;;;;5485651;26;19998;-43
2024/04/12 13:21:10;;;;;;;2.08;0.70;;;21.30;99.90;;;;;;5488620;26;20005;-42
2024/04/12 13:23:38;;;;;;;2.78;0.88;;;21.20;99.90;;;;;;5488439;26;20034;-42
2024/04/12 13:26:06;;;;;;;2.50;0.88;;;21.30;99.90;;;;;;5488552;26;20516;-41
2024/04/12 13:28:36;;;;;;;1.80;0.90;;;21.30;99.90;;;;;;5488597;26;19998;-39
2024/04/12 13:31:02;;;;;;;1.98;0.93;;;21.60;99.90;;;;;;5488317;26;19994;-71
2024/04/12 13:33:28;;;;;;;1.60;0.68;;;21.70;99.90;;;;;;5488075;26;20024;-43
2024/04/12 13:35:54;;;;;;;1.75;0.65;;;21.90;99.90;;;;;;5488865;26;19994;-40
2024/04/12 13:38:20;;;;;;;1.90;0.90;;;22.10;99.90;;;;;;5485395;26;20002;-42
2024/04/12 13:40:47;;;;;;;2.65;0.73;;;22.30;99.90;;;;;;5473126;26;19995;-39
2024/04/12 13:43:16;;;;;;;3.90;0.80;;;22.00;99.90;;;;;;5452146;26;20321;-60
2024/04/12 13:51:18;;;;;;;1.15;0.38;;;21.90;99.90;;;;;;5487956;26;20005;-42
2024/04/12 13:53:44;;;;;;;3.42;0.80;;;22.10;99.90;;;;;;5487864;26;20009;-40
2024/04/12 13:56:20;;;;;;;1.60;0.52;;;22.30;99.90;;;;;;5488253;26;20423;-45
2024/04/12 13:58:55;;;;;;;0.65;0.60;;;22.50;99.90;;;;;;5487899;26;20009;-43
2024/04/12 14:01:25;;;;;;;2.80;0.63;;;22.50;99.90;;;;;;5487893;26;20002;-38
2024/04/12 14:03:54;;;;;;;0.80;0.47;;;22.30;99.90;;;;;;5487685;26;20002;-40
2024/04/12 14:06:23;;;;;;;2.00;0.65;;;22.20;99.90;;;;;;5487449;26;20346;-42
2024/04/12 14:08:53;;;;;;;1.33;0.80;;;22.10;99.90;;;;;;5481109;26;20447;-41
2024/04/12 14:11:19;;;;;;;1.45;0.70;;;21.90;99.90;;;;;;5487795;26;20022;-65
2024/04/12 14:13:45;;;;;;;0.45;0.40;;;21.90;99.90;;;;;;5489807;26;19995;-41
2024/04/12 14:16:13;;;;;;;3.35;0.50;;;21.70;99.90;;;;;;5489606;26;20026;-42
2024/04/12 14:18:38;;;;;;;0.50;0.50;;;21.90;99.90;;;;;;5490984;26;20039;-46
2024/04/12 14:21:06;;;;;;;1.55;0.57;;;22.10;99.90;;;;;;5490520;26;20340;-42